Terminal Aerodrome Forecast
Issued by NWS

Home | Current Version | Previous Version | Text Only | Print | Product List | Glossary On
Versions: 1 2 3 4 5 6 7 8 9 10 11 12
000
FTUS45 KABQ 192300
TAFFMN
TAF
KFMN 192332Z 2000/2024 27008KT P6SM VCSH SCT080
     FM200200 27008KT P6SM VCSH BKN070
     FM200400 VRB05KT P6SM BKN060
     FM201000 07006KT P6SM SCT080
     FM201800 28010G20KT P6SM SCT090
     FM202100 28015G24KT P6SM VCSH BKN100=

USA.gov is the U.S. government's official web portal to all federal, state and local government web resources and services.